Terminal Aerodrome Forecast
Issued by NWS

Home | Current Version | Previous Version | Text Only | Print | Product List | Glossary Off
Versions: 1 2 3 4 5 6 7 8 9 10 11 12 13 14 15 16 17 18 19 20 21 22 23 24 25 26 27 28 29 30 31

000
FTUS43 KLOT 301120
TAFORD
TAF
KORD 301120Z 3012/3118 VRB03KT 4SM -TSRA SCT007 BKN050CB
     FM301300 26005KT P6SM SCT040 BKN080
     FM301800 26008KT P6SM VCSH BKN035 PROB30 3021/3024 2SM TSRA
      SCT020 OVC030CB
     FM310000 27005KT P6SM SCT040 BKN180
     FM310800 33006KT P6SM SCT040 BKN180
     FM311200 01012KT P6SM BKN010
     FM311500 02013G19KT P6SM SCT025 BKN250=

USA.gov is the U.S. government's official web portal to all federal, state and local government web resources and services.